Jock — WDF2423 — position and weather

sailwx.info

Track history (hours):
 
Tides and Currents Weather Stations Pressure Air Temp Water Temp Dewpoint Dewpoint Depression Visibility Wind Speed Wind Dir Waves Ship Positions

Jock

Owner: Enterprise Marine Services, LLC, San Antonio, TX. More information available from US FCC via Universal Licensing System and Coast Guard Vessel Documentation Center.

Last reported at 2016-Feb-14 05:30 UTC. Time now 2016-Feb-14 06:00 UTC.
Position N 29°57' W 093°52'.

Length 28 m; draft 3 m.

Type: Other ship. MMSI: 367003460.

Date/timePositionNaut miles runAvg speedWind from/ knotsBaromVisibWave heightAir tempDewpointWater temp
2016-Feb-14 05:30N 29°57' W 093°52'0 0.0
2016-Feb-14 04:31N 29°57' W 093°52'0 0.0
2016-Feb-14 03:20N 29°57' W 093°52'2 1.2
2016-Feb-14 02:05N 29°59' W 093°53'0 0.1
2016-Feb-14 01:33N 29°59' W 093°53'0 0.0
2016-Feb-14 00:33N 29°59' W 093°53'0 0.0
2016-Feb-13 23:29N 29°59' W 093°53'0 0.0
2016-Feb-13 22:33N 29°59' W 093°53'0 0.0
2016-Feb-13 21:33N 29°59' W 093°53'0 0.0
2016-Feb-13 20:27N 29°59' W 093°53'0 0.0
2016-Feb-13 19:33N 29°59' W 093°53'0 0.0
2016-Feb-13 18:33N 29°59' W 093°53'0 0.0
2016-Feb-13 17:22N 29°59' W 093°53'0 0.0
2016-Feb-13 16:30N 29°59' W 093°53'0 0.0
2016-Feb-13 15:28N 29°59' W 093°53'0 0.0
2016-Feb-13 14:12N 29°59' W 093°53'0 0.0
2016-Feb-13 13:21N 29°59' W 093°53'0 0.0
2016-Feb-13 12:29N 29°59' W 093°53'0 0.0
2016-Feb-13 11:33N 29°59' W 093°53'0 0.0
2016-Feb-13 10:33N 29°59' W 093°53'0 0.0
2016-Feb-13 09:33N 29°59' W 093°53'0 0.0
2016-Feb-13 08:33N 29°59' W 093°53'0 0.0
2016-Feb-13 07:33N 29°59' W 093°53'0 0.0
2016-Feb-13 06:33N 29°59' W 093°53'0 0.0
2016-Feb-13 05:33N 29°59' W 093°53'0 0.0
2016-Feb-13 04:33N 29°59' W 093°53'0 0.0
2016-Feb-13 03:33N 29°59' W 093°53'0 0.0
2016-Feb-13 02:31N 29°59' W 093°53'0 0.0
2016-Feb-13 01:33N 29°59' W 093°53'0 0.0
2016-Feb-13 00:31N 29°59' W 093°53'0 0.0
2016-Feb-12 23:33N 29°59' W 093°53'0 0.0
2016-Feb-12 22:33N 29°59' W 093°53'0 0.0
2016-Feb-12 21:33N 29°59' W 093°53'0 0.0
2016-Feb-12 20:21N 29°59' W 093°53'0 0.0
2016-Feb-12 19:19N 29°59' W 093°53'0 0.0
2016-Feb-12 18:16N 29°59' W 093°53'0 0.0
2016-Feb-12 17:33N 29°59' W 093°53'6 4.7
2016-Feb-12 16:11N 29°53' W 093°55'6 3.9
2016-Feb-12 14:30N 29°48' W 094°00'0 0.2
2016-Feb-12 12:33N 29°48' W 094°01'0 0.0
2016-Feb-12 11:33N 29°48' W 094°00'0 0.0
2016-Feb-12 10:33N 29°48' W 094°00'4 2.9
2016-Feb-12 09:05N 29°45' W 094°04'0 0.6
2016-Feb-12 08:33N 29°45' W 094°05'0 0.0
2016-Feb-12 07:33N 29°45' W 094°05'5 2.7
2016-Feb-12 05:33N 29°42' W 094°09'2 1.7
2016-Feb-12 04:09N 29°41' W 094°12'2 3.2
2016-Feb-12 03:32N 29°40' W 094°14'4 3.2
2016-Feb-12 02:17N 29°38' W 094°18'  
2016-Feb-04 13:25N 29°58' W 093°52'0 0.0
2016-Feb-04 12:28N 29°58' W 093°52'0 0.0
2016-Feb-04 09:04N 29°58' W 093°52'0 0.0
2016-Feb-04 08:33N 29°58' W 093°52'0 0.0
2016-Feb-04 07:32N 29°58' W 093°52'  
Track history (hours):
 
Tides and Currents Weather Stations Pressure Air Temp Water Temp Dewpoint Dewpoint Depression Visibility Wind Speed Wind Dir Waves Ship Positions

Jock

Owner: Enterprise Marine Services, LLC, San Antonio, TX. More information available from US FCC via Universal Licensing System and Coast Guard Vessel Documentation Center.

Last reported at 2016-Feb-14 05:30 UTC. Time now 2016-Feb-14 06:00 UTC.
Position N 29°57' W 093°52'.

Length 28 m; draft 3 m.

Type: Other ship. MMSI: 367003460.

Date/timePositionNaut miles runAvg speedWind from/ knotsBaromVisibWave heightAir tempDewpointWater temp
2016-Feb-14 05:30N 29°57' W 093°52'0 0.0
2016-Feb-14 04:31N 29°57' W 093°52'0 0.0
2016-Feb-14 03:20N 29°57' W 093°52'2 1.2
2016-Feb-14 02:05N 29°59' W 093°53'0 0.1
2016-Feb-14 01:33N 29°59' W 093°53'0 0.0
2016-Feb-14 00:33N 29°59' W 093°53'0 0.0
2016-Feb-13 23:29N 29°59' W 093°53'0 0.0
2016-Feb-13 22:33N 29°59' W 093°53'0 0.0
2016-Feb-13 21:33N 29°59' W 093°53'0 0.0
2016-Feb-13 20:27N 29°59' W 093°53'0 0.0
2016-Feb-13 19:33N 29°59' W 093°53'0 0.0
2016-Feb-13 18:33N 29°59' W 093°53'0 0.0
2016-Feb-13 17:22N 29°59' W 093°53'0 0.0
2016-Feb-13 16:30N 29°59' W 093°53'0 0.0
2016-Feb-13 15:28N 29°59' W 093°53'0 0.0
2016-Feb-13 14:12N 29°59' W 093°53'0 0.0
2016-Feb-13 13:21N 29°59' W 093°53'0 0.0
2016-Feb-13 12:29N 29°59' W 093°53'0 0.0
2016-Feb-13 11:33N 29°59' W 093°53'0 0.0
2016-Feb-13 10:33N 29°59' W 093°53'0 0.0
2016-Feb-13 09:33N 29°59' W 093°53'0 0.0
2016-Feb-13 08:33N 29°59' W 093°53'0 0.0
2016-Feb-13 07:33N 29°59' W 093°53'0 0.0
2016-Feb-13 06:33N 29°59' W 093°53'0 0.0
2016-Feb-13 05:33N 29°59' W 093°53'0 0.0
2016-Feb-13 04:33N 29°59' W 093°53'0 0.0
2016-Feb-13 03:33N 29°59' W 093°53'0 0.0
2016-Feb-13 02:31N 29°59' W 093°53'0 0.0
2016-Feb-13 01:33N 29°59' W 093°53'0 0.0
2016-Feb-13 00:31N 29°59' W 093°53'0 0.0
2016-Feb-12 23:33N 29°59' W 093°53'0 0.0
2016-Feb-12 22:33N 29°59' W 093°53'0 0.0
2016-Feb-12 21:33N 29°59' W 093°53'0 0.0
2016-Feb-12 20:21N 29°59' W 093°53'0 0.0
2016-Feb-12 19:19N 29°59' W 093°53'0 0.0
2016-Feb-12 18:16N 29°59' W 093°53'0 0.0
2016-Feb-12 17:33N 29°59' W 093°53'6 4.7
2016-Feb-12 16:11N 29°53' W 093°55'6 3.9
2016-Feb-12 14:30N 29°48' W 094°00'0 0.2
2016-Feb-12 12:33N 29°48' W 094°01'0 0.0
2016-Feb-12 11:33N 29°48' W 094°00'0 0.0
2016-Feb-12 10:33N 29°48' W 094°00'4 2.9
2016-Feb-12 09:05N 29°45' W 094°04'0 0.6
2016-Feb-12 08:33N 29°45' W 094°05'0 0.0
2016-Feb-12 07:33N 29°45' W 094°05'5 2.7
2016-Feb-12 05:33N 29°42' W 094°09'2 1.7
2016-Feb-12 04:09N 29°41' W 094°12'2 3.2
2016-Feb-12 03:32N 29°40' W 094°14'4 3.2
2016-Feb-12 02:17N 29°38' W 094°18'  
2016-Feb-04 13:25N 29°58' W 093°52'0 0.0
2016-Feb-04 12:28N 29°58' W 093°52'0 0.0
2016-Feb-04 09:04N 29°58' W 093°52'0 0.0
2016-Feb-04 08:33N 29°58' W 093°52'0 0.0
2016-Feb-04 07:32N 29°58' W 093°52'  

Dump ship's entire track history